createdAt,value
2017-09-04T00:02:16.086Z,69.20
2017-09-04T00:04:43.608Z,69.30
2017-09-04T00:07:11.106Z,69.30
2017-09-04T00:09:38.591Z,69.50
2017-09-04T00:12:06.091Z,69.10
2017-09-04T00:14:33.605Z,69.10
2017-09-04T00:17:01.884Z,69.00
2017-09-04T00:19:30.126Z,69.20
2017-09-04T00:21:57.618Z,69.10
2017-09-04T00:24:25.876Z,69.60
2017-09-04T00:26:53.348Z,69.40
2017-09-04T00:29:21.857Z,70.10
2017-09-04T00:31:49.329Z,69.30
2017-09-04T00:34:16.800Z,69.10
2017-09-04T00:36:44.300Z,69.00
2017-09-04T00:39:11.790Z,68.90
2017-09-04T00:41:39.260Z,69.10
2017-09-04T00:44:06.787Z,69.10
2017-09-04T00:46:35.030Z,68.90
2017-09-04T00:49:02.510Z,68.90
2017-09-04T00:51:29.998Z,68.50
2017-09-04T00:53:57.479Z,69.30
2017-09-04T00:56:24.964Z,68.30
2017-09-04T00:58:52.437Z,68.30
2017-09-04T01:01:19.918Z,68.40
2017-09-04T01:03:48.185Z,68.50
2017-09-04T01:06:16.419Z,68.60
2017-09-04T01:08:43.910Z,68.60
2017-09-04T01:11:12.156Z,68.90
2017-09-04T01:13:39.746Z,68.90
2017-09-04T01:16:07.576Z,69.00
2017-09-04T01:18:35.070Z,69.60
2017-09-04T01:21:02.555Z,69.20
2017-09-04T01:23:30.073Z,69.20
2017-09-04T01:25:57.552Z,69.40
2017-09-04T01:28:25.193Z,68.90
2017-09-04T01:30:52.687Z,69.00
2017-09-04T01:33:20.220Z,69.40
2017-09-04T01:35:47.708Z,69.00
2017-09-04T01:38:15.231Z,68.80
2017-09-04T01:40:43.539Z,68.50
2017-09-04T01:43:12.020Z,68.80
2017-09-04T01:45:39.494Z,68.40
2017-09-04T01:48:07.888Z,68.50
2017-09-04T01:50:35.411Z,68.50
2017-09-04T01:53:02.948Z,68.70
2017-09-04T01:55:30.483Z,68.80
2017-09-04T01:57:57.961Z,68.70
2017-09-04T02:00:26.285Z,68.50
2017-09-04T02:02:53.824Z,68.80
2017-09-04T02:05:21.377Z,68.70
2017-09-04T02:07:48.937Z,68.50
2017-09-04T02:10:16.464Z,68.70
2017-09-04T02:12:44.054Z,68.60
2017-09-04T02:15:11.553Z,68.60
2017-09-04T02:17:39.078Z,68.70
2017-09-04T02:20:07.059Z,68.60
2017-09-04T02:22:34.577Z,68.60
2017-09-04T02:25:02.875Z,68.30
2017-09-04T02:27:30.389Z,68.60
2017-09-04T02:29:57.898Z,68.90
2017-09-04T02:32:25.429Z,68.70
2017-09-04T02:34:53.011Z,69.20
2017-09-04T02:37:20.522Z,69.20
2017-09-04T02:39:48.074Z,68.60
2017-09-04T02:42:15.561Z,69.00
2017-09-04T02:44:43.111Z,68.90
2017-09-04T02:47:10.715Z,68.70
2017-09-04T02:49:38.253Z,68.40
2017-09-04T02:52:05.750Z,68.60
2017-09-04T02:54:33.303Z,68.50
2017-09-04T02:57:00.795Z,68.30
2017-09-04T02:59:28.326Z,68.50
2017-09-04T03:01:55.832Z,68.30
2017-09-04T03:04:23.343Z,68.30
2017-09-04T03:06:51.630Z,69.10
2017-09-04T03:09:19.425Z,69.20
2017-09-04T03:11:46.993Z,69.20
2017-09-04T03:14:14.502Z,68.60
2017-09-04T03:16:42.022Z,68.70
2017-09-04T03:19:09.606Z,68.70
2017-09-04T03:21:37.137Z,68.70
2017-09-04T03:24:04.662Z,68.20
2017-09-04T03:26:32.174Z,68.70
2017-09-04T03:28:59.689Z,68.10
2017-09-04T03:31:28.528Z,67.60
2017-09-04T03:33:56.115Z,68.00
2017-09-04T03:36:23.616Z,67.70
2017-09-04T03:38:52.838Z,68.20
2017-09-04T03:41:20.392Z,67.90
2017-09-04T03:43:47.928Z,68.40
2017-09-04T03:46:16.247Z,68.50
2017-09-04T03:48:43.808Z,68.50
2017-09-04T03:51:11.304Z,68.80
2017-09-04T03:53:38.800Z,68.30
2017-09-04T03:56:06.311Z,68.60
2017-09-04T03:58:36.535Z,68.30
2017-09-04T04:01:04.038Z,67.90
2017-09-04T04:03:31.570Z,68.00
2017-09-04T04:06:00.705Z,67.80
2017-09-04T04:08:28.615Z,68.00
2017-09-04T04:10:56.138Z,67.70
2017-09-04T04:13:23.609Z,67.30
2017-09-04T04:15:51.172Z,67.70
2017-09-04T04:18:18.680Z,67.70
2017-09-04T04:20:46.338Z,67.60
2017-09-04T04:23:13.845Z,67.40
2017-09-04T04:25:41.376Z,67.80
2017-09-04T04:28:09.105Z,67.90
2017-09-04T04:30:36.817Z,67.90
2017-09-04T04:33:05.118Z,67.70
2017-09-04T04:35:32.602Z,67.70
2017-09-04T04:38:00.243Z,68.20
2017-09-04T04:40:28.518Z,67.90
2017-09-04T04:42:56.025Z,68.30
2017-09-04T04:45:24.383Z,67.70
2017-09-04T04:47:51.904Z,68.20
2017-09-04T04:50:20.198Z,68.40
2017-09-04T04:52:47.929Z,68.50
2017-09-04T04:55:15.461Z,67.90
2017-09-04T04:57:43.009Z,68.10
2017-09-04T05:00:10.556Z,67.50
2017-09-04T05:02:38.129Z,67.60
2017-09-04T05:05:05.651Z,67.10
2017-09-04T05:07:33.166Z,67.00
2017-09-04T05:10:00.798Z,66.70
2017-09-04T05:12:28.307Z,66.70
2017-09-04T05:14:55.871Z,66.10
2017-09-04T05:17:24.126Z,66.60
2017-09-04T05:19:51.643Z,66.70
2017-09-04T05:22:19.174Z,66.50
2017-09-04T05:24:46.687Z,66.50
2017-09-04T05:27:14.334Z,66.10
2017-09-04T05:29:41.843Z,65.70
2017-09-04T05:32:09.488Z,65.50
2017-09-04T05:34:36.967Z,64.70
2017-09-04T05:37:04.513Z,65.20
2017-09-04T05:39:32.183Z,64.80
2017-09-04T05:41:59.688Z,64.80
2017-09-04T05:44:28.002Z,64.30
2017-09-04T05:46:55.531Z,64.50
2017-09-04T05:49:23.882Z,63.80
2017-09-04T05:51:51.363Z,63.80
2017-09-04T05:54:18.877Z,62.60
2017-09-04T05:56:46.394Z,62.60
2017-09-04T05:59:13.919Z,62.70
2017-09-04T06:01:42.240Z,61.40
2017-09-04T06:04:09.907Z,62.20
2017-09-04T06:06:37.391Z,61.60
2017-09-04T06:09:05.010Z,61.50
2017-09-04T06:11:32.522Z,61.20
2017-09-04T06:14:00.013Z,61.00
2017-09-04T06:16:27.550Z,59.90
2017-09-04T06:18:55.825Z,59.70
2017-09-04T06:21:23.324Z,59.70
2017-09-04T06:23:50.869Z,59.50
2017-09-04T06:26:18.370Z,59.00
2017-09-04T06:28:45.835Z,58.90
2017-09-04T06:31:13.335Z,58.20
2017-09-04T06:33:40.821Z,57.50
2017-09-04T06:36:08.639Z,57.00
2017-09-04T06:38:36.896Z,55.20
2017-09-04T06:41:04.539Z,55.50
2017-09-04T06:43:32.080Z,53.00
2017-09-04T06:45:59.614Z,50.70
2017-09-04T06:48:27.083Z,49.90
2017-09-04T06:50:54.595Z,50.80
2017-09-04T06:53:22.127Z,50.90
2017-09-04T06:55:49.662Z,51.40
2017-09-04T06:58:17.961Z,51.80
2017-09-04T07:00:45.473Z,51.90
2017-09-04T07:03:12.985Z,52.20
2017-09-04T07:05:41.358Z,53.30
2017-09-04T07:08:09.057Z,53.40
2017-09-04T07:10:36.535Z,53.40
2017-09-04T07:13:04.143Z,53.50
2017-09-04T07:15:32.739Z,51.90
2017-09-04T07:18:00.256Z,51.60
2017-09-04T07:20:28.506Z,51.20
2017-09-04T07:22:56.009Z,50.40
2017-09-04T07:25:23.558Z,50.70
2017-09-04T07:27:51.848Z,49.20
2017-09-04T07:30:19.432Z,49.30
2017-09-04T07:32:47.014Z,50.80
2017-09-04T07:35:14.570Z,50.70
2017-09-04T07:37:42.095Z,49.10
2017-09-04T07:40:09.697Z,48.60
2017-09-04T07:42:37.321Z,47.90
2017-09-04T07:45:04.935Z,48.10
2017-09-04T07:47:32.433Z,48.00
2017-09-04T07:49:59.987Z,48.50
2017-09-04T07:52:27.482Z,48.30
2017-09-04T07:54:55.011Z,48.60
2017-09-04T07:57:22.554Z,49.10
2017-09-04T07:59:50.091Z,48.60
2017-09-04T08:02:17.616Z,48.40
2017-09-04T08:04:45.144Z,47.50
2017-09-04T08:07:12.699Z,46.90
2017-09-04T08:09:40.178Z,46.20
2017-09-04T08:12:08.085Z,46.40
2017-09-04T08:14:35.587Z,46.70
2017-09-04T08:17:03.133Z,46.50
2017-09-04T08:19:30.691Z,45.50
2017-09-04T08:21:58.198Z,46.10
2017-09-04T08:24:26.602Z,46.30
2017-09-04T08:26:54.128Z,46.80
2017-09-04T08:29:21.625Z,45.40
2017-09-04T08:31:49.080Z,45.40
2017-09-04T08:34:16.575Z,45.90
2017-09-04T08:36:44.049Z,44.90
2017-09-04T08:39:11.568Z,44.40
2017-09-04T08:41:39.154Z,44.80
2017-09-04T08:44:06.676Z,45.30
2017-09-04T08:46:34.199Z,44.50
2017-09-04T08:49:01.698Z,43.40
2017-09-04T08:51:29.195Z,44.40
2017-09-04T08:53:56.763Z,43.80
2017-09-04T08:56:24.260Z,43.70
2017-09-04T08:58:51.816Z,43.90
2017-09-04T09:01:20.082Z,45.10
2017-09-04T09:03:48.474Z,45.70
2017-09-04T09:06:15.987Z,45.90
2017-09-04T09:08:44.304Z,44.50
2017-09-04T09:11:12.612Z,45.30
2017-09-04T09:13:40.101Z,45.40
2017-09-04T09:16:08.155Z,43.70
2017-09-04T09:18:35.759Z,43.20
2017-09-04T09:21:03.313Z,43.70
2017-09-04T09:23:30.847Z,43.30
2017-09-04T09:25:59.537Z,43.10
2017-09-04T09:28:27.017Z,43.10
2017-09-04T09:30:55.284Z,42.30
2017-09-04T09:33:23.547Z,41.90
2017-09-04T09:35:51.828Z,42.70
2017-09-04T09:38:20.090Z,42.50
2017-09-04T09:40:47.918Z,42.60
2017-09-04T09:43:15.436Z,42.20
2017-09-04T09:45:43.023Z,42.50
2017-09-04T09:48:10.664Z,42.20
2017-09-04T09:50:38.170Z,41.00
2017-09-04T09:53:05.805Z,41.40
2017-09-04T09:55:33.310Z,40.40
2017-09-04T09:58:00.767Z,39.30
2017-09-04T10:00:28.250Z,38.90
2017-09-04T10:02:55.747Z,39.20
2017-09-04T10:05:23.541Z,38.30
2017-09-04T10:07:51.047Z,38.60
2017-09-04T10:10:18.564Z,39.10
2017-09-04T10:12:46.053Z,40.00
2017-09-04T10:15:13.547Z,40.30
2017-09-04T10:17:41.074Z,40.60
2017-09-04T10:20:08.595Z,40.60
2017-09-04T10:22:36.988Z,38.90
2017-09-04T10:25:04.645Z,39.00
2017-09-04T10:27:32.115Z,38.30
2017-09-04T10:29:59.637Z,38.00
2017-09-04T10:32:27.201Z,36.80
2017-09-04T10:34:54.682Z,35.20
2017-09-04T10:37:22.252Z,34.40
2017-09-04T10:39:49.772Z,32.60
2017-09-04T10:42:17.290Z,32.40
2017-09-04T10:44:44.891Z,31.20
2017-09-04T10:47:12.574Z,29.50
2017-09-04T10:49:40.048Z,28.00
2017-09-04T10:52:07.575Z,27.00
2017-09-04T10:54:35.119Z,28.00
2017-09-04T10:57:02.683Z,28.80
2017-09-04T10:59:30.272Z,28.40
2017-09-04T11:01:57.833Z,28.80
2017-09-04T11:04:25.329Z,28.70
2017-09-04T11:06:52.846Z,28.70
2017-09-04T11:09:20.561Z,28.90
2017-09-04T11:11:48.101Z,28.50
2017-09-04T11:14:15.617Z,27.60
2017-09-04T11:16:43.114Z,27.00
2017-09-04T11:19:10.662Z,28.00
2017-09-04T11:21:38.199Z,29.00
2017-09-04T11:24:05.755Z,29.10
2017-09-04T11:26:33.409Z,31.20
2017-09-04T11:29:00.926Z,32.50
2017-09-04T11:31:28.456Z,33.50
2017-09-04T11:33:55.967Z,34.90
2017-09-04T11:36:23.452Z,36.80
2017-09-04T11:38:50.989Z,36.90
2017-09-04T11:41:19.229Z,37.40
2017-09-04T11:43:46.782Z,37.40
2017-09-04T11:46:14.289Z,36.40
2017-09-04T11:48:54.944Z,37.40
2017-09-04T11:51:23.340Z,37.30
2017-09-04T11:53:50.858Z,36.70
2017-09-04T11:56:18.368Z,37.20
2017-09-04T11:58:45.860Z,38.00
2017-09-04T12:01:13.324Z,38.40
2017-09-04T12:03:40.829Z,38.40
2017-09-04T12:06:08.539Z,38.90
2017-09-04T12:08:36.050Z,38.90
2017-09-04T12:11:04.316Z,38.90
2017-09-04T12:13:31.827Z,38.90
2017-09-04T12:15:59.400Z,40.20
2017-09-04T12:18:26.909Z,39.50
2017-09-04T12:20:54.445Z,39.10
2017-09-04T12:23:21.920Z,38.00
2017-09-04T12:25:49.424Z,39.00
2017-09-04T12:28:17.023Z,39.10
2017-09-04T12:30:45.315Z,37.70
2017-09-04T12:33:12.802Z,37.70
2017-09-04T12:35:40.381Z,38.80
2017-09-04T12:38:08.106Z,38.70
2017-09-04T12:40:35.584Z,38.70
2017-09-04T12:43:03.108Z,38.50
2017-09-04T12:45:30.783Z,39.30
2017-09-04T12:47:58.301Z,38.40
2017-09-04T12:50:25.819Z,38.50
2017-09-04T12:52:53.323Z,38.30
2017-09-04T12:55:20.852Z,37.20
2017-09-04T12:57:48.323Z,37.30
2017-09-04T13:00:15.805Z,37.70
2017-09-04T13:02:43.328Z,38.00
2017-09-04T13:05:10.801Z,38.40
2017-09-04T13:07:39.937Z,39.20
2017-09-04T13:10:09.201Z,39.40
2017-09-04T13:12:36.756Z,39.40
2017-09-04T13:15:10.025Z,39.50
2017-09-04T13:21:04.179Z,38.80
2017-09-04T13:23:37.508Z,38.90
2017-09-04T13:29:09.647Z,37.00
2017-09-04T13:31:42.880Z,38.40
2017-09-04T13:34:13.960Z,38.40
2017-09-04T13:36:47.249Z,37.80
2017-09-04T13:39:20.511Z,38.40
2017-09-04T13:41:53.863Z,38.20
2017-09-04T13:47:48.303Z,36.60
2017-09-04T13:50:20.168Z,35.90
2017-09-04T13:53:03.516Z,34.90
2017-09-04T13:55:36.708Z,34.90
2017-09-04T13:58:10.066Z,37.30
2017-09-04T14:00:43.451Z,38.40
2017-09-04T14:03:32.059Z,38.20
2017-09-04T14:06:05.318Z,37.60
2017-09-04T14:11:49.108Z,38.50
2017-09-04T14:17:22.893Z,36.50
2017-09-04T14:19:50.471Z,36.50
2017-09-04T14:22:18.131Z,36.80
2017-09-04T14:24:45.613Z,38.00
2017-09-04T14:27:13.079Z,38.10
2017-09-04T14:29:42.555Z,38.30
2017-09-04T14:32:10.174Z,37.50
2017-09-04T14:34:37.652Z,37.20
2017-09-04T14:37:06.356Z,36.90
2017-09-04T14:39:33.850Z,36.50
2017-09-04T14:42:01.334Z,37.30
2017-09-04T14:44:29.550Z,37.20
2017-09-04T14:49:59.833Z,36.20
2017-09-04T14:52:27.333Z,35.90
2017-09-04T14:54:54.803Z,35.60
2017-09-04T14:57:23.077Z,35.40
2017-09-04T14:59:50.569Z,35.40
2017-09-04T15:02:18.096Z,35.30
2017-09-04T15:04:45.818Z,34.70
2017-09-04T15:07:16.278Z,34.20
2017-09-04T15:09:44.845Z,35.10
2017-09-04T15:12:13.573Z,35.70
2017-09-04T15:14:41.099Z,35.60
2017-09-04T15:17:09.435Z,35.90
2017-09-04T15:19:37.054Z,36.80
2017-09-04T15:22:04.587Z,36.80
2017-09-04T15:24:32.098Z,36.50
2017-09-04T15:27:00.330Z,37.10
2017-09-04T15:29:27.873Z,36.70
2017-09-04T15:31:55.352Z,37.70
2017-09-04T15:34:23.416Z,37.20
2017-09-04T15:36:51.597Z,36.10
2017-09-04T15:39:19.140Z,36.00
2017-09-04T15:41:47.385Z,35.70
2017-09-04T15:44:14.930Z,35.60
2017-09-04T15:46:42.419Z,34.40
2017-09-04T15:49:10.050Z,34.70
2017-09-04T15:51:37.624Z,35.40
2017-09-04T15:54:05.315Z,34.30
2017-09-04T15:56:32.893Z,32.90
2017-09-04T15:59:00.397Z,33.30
2017-09-04T16:01:27.994Z,33.40
2017-09-04T16:03:55.540Z,34.30
2017-09-04T16:06:25.616Z,34.80
2017-09-04T16:08:53.113Z,34.40
2017-09-04T16:11:21.359Z,35.10
2017-09-04T16:13:49.290Z,35.80
2017-09-04T16:16:20.683Z,35.40
2017-09-04T16:18:51.116Z,35.20
2017-09-04T16:21:20.092Z,35.00
2017-09-04T16:24:02.662Z,35.00
2017-09-04T16:26:35.787Z,35.70
2017-09-04T16:32:26.250Z,35.80
2017-09-04T16:37:55.873Z,36.60
2017-09-04T16:40:23.397Z,37.70
2017-09-04T16:43:03.017Z,38.00
2017-09-04T16:45:32.419Z,38.30
2017-09-04T16:48:02.709Z,38.00
2017-09-04T16:50:40.248Z,38.00
2017-09-04T16:53:12.747Z,37.80
2017-09-04T16:55:43.976Z,37.50
2017-09-04T16:58:12.259Z,38.90
2017-09-04T17:00:39.798Z,38.70
2017-09-04T17:03:07.461Z,39.30
2017-09-04T17:05:34.996Z,40.00
2017-09-04T17:08:02.490Z,40.30
2017-09-04T17:10:30.598Z,40.70
2017-09-04T17:12:58.091Z,40.20
2017-09-04T17:15:25.597Z,40.90
2017-09-04T17:18:03.215Z,40.90
2017-09-04T17:23:36.034Z,41.20
2017-09-04T17:26:03.739Z,42.50
2017-09-04T17:28:31.220Z,42.20
2017-09-04T17:30:58.969Z,42.80
2017-09-04T17:33:26.464Z,42.50
2017-09-04T17:35:55.991Z,42.90
2017-09-04T17:38:24.943Z,43.20
2017-09-04T17:40:53.229Z,43.90
2017-09-04T17:43:21.427Z,43.90
2017-09-04T17:45:49.224Z,44.50
2017-09-04T17:48:16.896Z,44.70
2017-09-04T17:50:44.588Z,44.80
2017-09-04T17:53:12.093Z,45.40
2017-09-04T17:55:39.889Z,45.40
2017-09-04T17:58:08.434Z,45.40
2017-09-04T18:00:35.963Z,45.50
2017-09-04T18:03:04.357Z,46.10
2017-09-04T18:05:31.910Z,46.00
2017-09-04T18:07:59.408Z,46.20
2017-09-04T18:10:26.912Z,46.50
2017-09-04T18:12:54.609Z,46.90
2017-09-04T18:15:22.115Z,46.90
2017-09-04T18:17:49.637Z,47.30
2017-09-04T18:20:17.730Z,47.50
2017-09-04T18:22:45.336Z,47.50
2017-09-04T18:25:13.068Z,47.90
2017-09-04T18:27:42.029Z,48.20
2017-09-04T18:30:09.589Z,48.20
2017-09-04T18:32:37.075Z,48.30
2017-09-04T18:35:04.823Z,49.50
2017-09-04T18:37:32.445Z,49.10
2017-09-04T18:40:01.645Z,48.70
2017-09-04T18:42:29.214Z,49.30
2017-09-04T18:44:57.508Z,49.50
2017-09-04T18:47:24.996Z,49.50
2017-09-04T18:49:53.261Z,50.20
2017-09-04T18:52:21.552Z,50.20
2017-09-04T18:54:49.633Z,50.10
2017-09-04T18:57:17.166Z,50.40
2017-09-04T18:59:47.359Z,51.20
2017-09-04T19:02:14.961Z,51.10
2017-09-04T19:04:42.582Z,51.20
2017-09-04T19:07:10.133Z,51.70
2017-09-04T19:09:38.319Z,51.70
2017-09-04T19:12:05.930Z,51.90
2017-09-04T19:14:35.115Z,51.80
2017-09-04T19:17:02.675Z,52.00
2017-09-04T19:19:30.399Z,52.00
2017-09-04T19:21:58.492Z,52.10
2017-09-04T19:24:28.499Z,52.20
2017-09-04T19:26:56.144Z,52.20
2017-09-04T19:29:24.524Z,52.00
2017-09-04T19:31:52.082Z,52.10
2017-09-04T19:34:20.343Z,52.10
2017-09-04T19:36:47.908Z,52.10
2017-09-04T19:39:15.564Z,52.00
2017-09-04T19:41:43.096Z,52.50
2017-09-04T19:44:11.733Z,52.50
2017-09-04T19:46:39.305Z,52.40
2017-09-04T19:49:06.929Z,52.60
2017-09-04T19:51:34.872Z,52.60
2017-09-04T19:54:02.396Z,53.00
2017-09-04T19:56:30.314Z,52.90
2017-09-04T19:58:58.143Z,52.90
2017-09-04T20:01:25.718Z,53.10
2017-09-04T20:03:53.370Z,53.30
2017-09-04T20:06:21.025Z,53.40
2017-09-04T20:08:48.673Z,53.20
2017-09-04T20:11:16.187Z,53.80
2017-09-04T20:13:43.730Z,53.90
2017-09-04T20:16:11.700Z,54.10
2017-09-04T20:18:39.554Z,54.00
2017-09-04T20:21:07.276Z,54.40
2017-09-04T20:23:35.717Z,54.10
2017-09-04T20:26:03.297Z,54.10
2017-09-04T20:28:31.543Z,55.00
2017-09-04T20:34:01.839Z,55.10
2017-09-04T20:36:29.324Z,55.20
2017-09-04T20:38:56.937Z,55.60
2017-09-04T20:41:24.545Z,55.60
2017-09-04T20:43:52.039Z,55.70
2017-09-04T20:46:19.631Z,55.80
2017-09-04T20:48:47.166Z,56.20
2017-09-04T20:51:14.969Z,56.10
2017-09-04T20:53:43.305Z,56.60
2017-09-04T20:56:10.975Z,56.50
2017-09-04T20:58:38.717Z,56.50
2017-09-04T21:01:06.207Z,56.90
2017-09-04T21:03:33.990Z,57.00
2017-09-04T21:06:01.562Z,57.00
2017-09-04T21:08:29.039Z,57.20
2017-09-04T21:10:56.632Z,57.40
2017-09-04T21:13:24.317Z,57.50
2017-09-04T21:15:51.967Z,57.40
2017-09-04T21:18:19.456Z,57.40
2017-09-04T21:20:47.080Z,57.30
2017-09-04T21:23:14.700Z,57.50
2017-09-04T21:25:42.505Z,57.60
2017-09-04T21:28:10.065Z,57.60
2017-09-04T21:30:37.771Z,57.70
2017-09-04T21:33:05.337Z,57.90
2017-09-04T21:35:32.971Z,58.00
2017-09-04T21:38:00.612Z,58.10
2017-09-04T21:40:28.130Z,58.20
2017-09-04T21:42:55.596Z,58.40
2017-09-04T21:45:23.227Z,58.40
2017-09-04T21:47:50.709Z,58.50
2017-09-04T21:50:18.401Z,58.70
2017-09-04T21:52:46.338Z,58.80
2017-09-04T21:55:13.903Z,59.30
2017-09-04T21:57:42.147Z,59.60
2017-09-04T22:00:09.755Z,59.50
2017-09-04T22:02:37.256Z,59.60
2017-09-04T22:05:04.941Z,60.00
2017-09-04T22:07:32.542Z,59.80
2017-09-04T22:10:00.171Z,59.90
2017-09-04T22:12:27.854Z,60.00
2017-09-04T22:14:56.230Z,60.40
2017-09-04T22:17:23.789Z,60.30
2017-09-04T22:19:51.309Z,60.50
2017-09-04T22:22:18.967Z,60.70
2017-09-04T22:24:46.624Z,61.00
2017-09-04T22:27:14.109Z,61.30
2017-09-04T22:29:41.672Z,61.60
2017-09-04T22:32:09.345Z,61.90
2017-09-04T22:34:36.981Z,62.30
2017-09-04T22:37:04.778Z,62.50
2017-09-04T22:39:32.323Z,62.80
2017-09-04T22:41:59.953Z,63.10
2017-09-04T22:44:27.844Z,63.20
2017-09-04T22:46:55.322Z,63.30
2017-09-04T22:49:23.030Z,63.40
2017-09-04T22:51:50.846Z,63.20
2017-09-04T22:54:18.601Z,63.10
2017-09-04T22:56:46.178Z,63.00
2017-09-04T22:59:13.674Z,62.80
2017-09-04T23:01:41.452Z,62.90
2017-09-04T23:04:08.989Z,62.70
2017-09-04T23:06:36.491Z,62.70
2017-09-04T23:09:04.030Z,62.50
2017-09-04T23:11:31.611Z,62.70
2017-09-04T23:13:59.234Z,62.40
2017-09-04T23:16:26.840Z,62.70
2017-09-04T23:18:54.422Z,62.60
2017-09-04T23:21:22.092Z,62.40
2017-09-04T23:23:49.570Z,62.40
2017-09-04T23:26:17.174Z,62.40
2017-09-04T23:28:45.753Z,62.10
2017-09-04T23:31:13.361Z,62.10
2017-09-04T23:33:41.146Z,61.90
2017-09-04T23:36:08.781Z,62.00
2017-09-04T23:38:36.501Z,61.90
2017-09-04T23:41:04.059Z,61.70
2017-09-04T23:43:31.689Z,61.70
2017-09-04T23:45:59.295Z,62.20
2017-09-04T23:48:26.950Z,61.60
2017-09-04T23:50:54.448Z,61.40
2017-09-04T23:53:22.277Z,61.30
2017-09-04T23:55:49.895Z,61.20
2017-09-04T23:58:17.714Z,61.20
